sensor_id;sensor_type;location;lat;lon;timestamp;pressure;altitude;pressure_sealevel;temperature;humidity
33506;BME280;19843;51.040;13.782;2023-03-22T00:02:11;100072.50;;;12.43;98.48
33506;BME280;19843;51.040;13.782;2023-03-22T00:04:40;100066.13;;;12.55;97.98
33506;BME280;19843;51.040;13.782;2023-03-22T00:07:07;100072.72;;;12.62;97.16
33506;BME280;19843;51.040;13.782;2023-03-22T00:09:35;100071.28;;;12.47;98.13
33506;BME280;19843;51.040;13.782;2023-03-22T00:12:04;100069.34;;;12.38;99.53
33506;BME280;19843;51.040;13.782;2023-03-22T00:14:31;100073.84;;;12.37;99.78
33506;BME280;19843;51.040;13.782;2023-03-22T00:16:59;100069.69;;;12.33;100.00
33506;BME280;19843;51.040;13.782;2023-03-22T00:19:26;100065.03;;;12.58;99.02
33506;BME280;19843;51.040;13.782;2023-03-22T00:21:54;100055.16;;;12.58;97.85
33506;BME280;19843;51.040;13.782;2023-03-22T00:24:21;100063.72;;;12.41;99.22
33506;BME280;19843;51.040;13.782;2023-03-22T00:26:49;100062.72;;;12.42;99.42
33506;BME280;19843;51.040;13.782;2023-03-22T00:29:17;100059.28;;;12.51;98.92
33506;BME280;19843;51.040;13.782;2023-03-22T00:31:47;100055.84;;;12.60;97.08
33506;BME280;19843;51.040;13.782;2023-03-22T00:34:17;100058.44;;;12.62;96.78
33506;BME280;19843;51.040;13.782;2023-03-22T00:36:44;100050.09;;;12.65;96.40
33506;BME280;19843;51.040;13.782;2023-03-22T00:39:11;100048.31;;;12.54;96.54
33506;BME280;19843;51.040;13.782;2023-03-22T00:41:39;100041.94;;;12.55;96.49
33506;BME280;19843;51.040;13.782;2023-03-22T00:44:06;100037.78;;;12.51;96.65
33506;BME280;19843;51.040;13.782;2023-03-22T00:46:35;100032.75;;;12.58;96.13
33506;BME280;19843;51.040;13.782;2023-03-22T00:49:02;100028.25;;;12.58;95.79
33506;BME280;19843;51.040;13.782;2023-03-22T00:51:30;100024.09;;;12.54;95.83
33506;BME280;19843;51.040;13.782;2023-03-22T00:53:57;100028.13;;;12.48;95.61
33506;BME280;19843;51.040;13.782;2023-03-22T00:56:24;100018.84;;;12.41;96.10
33506;BME280;19843;51.040;13.782;2023-03-22T00:58:53;100024.22;;;12.41;96.25
33506;BME280;19843;51.040;13.782;2023-03-22T01:01:21;100026.34;;;12.38;96.49
33506;BME280;19843;51.040;13.782;2023-03-22T01:03:50;100018.00;;;12.41;95.95
33506;BME280;19843;51.040;13.782;2023-03-22T01:06:17;100027.66;;;12.32;96.14
33506;BME280;19843;51.040;13.782;2023-03-22T01:08:44;100023.66;;;12.26;96.66
33506;BME280;19843;51.040;13.782;2023-03-22T01:11:12;100033.41;;;12.16;97.13
33506;BME280;19843;51.040;13.782;2023-03-22T01:13:39;100023.50;;;12.17;97.52
33506;BME280;19843;51.040;13.782;2023-03-22T01:16:07;100031.38;;;11.73;99.95
33506;BME280;19843;51.040;13.782;2023-03-22T01:18:35;100028.63;;;11.50;100.00
33506;BME280;19843;51.040;13.782;2023-03-22T01:21:04;100021.09;;;11.67;100.00
33506;BME280;19843;51.040;13.782;2023-03-22T01:23:31;100024.06;;;11.75;100.00
33506;BME280;19843;51.040;13.782;2023-03-22T01:25:59;100024.38;;;11.48;100.00
33506;BME280;19843;51.040;13.782;2023-03-22T01:28:26;100014.75;;;11.57;100.00
33506;BME280;19843;51.040;13.782;2023-03-22T01:30:54;100011.06;;;11.46;100.00
33506;BME280;19843;51.040;13.782;2023-03-22T01:33:21;100005.94;;;11.43;100.00
33506;BME280;19843;51.040;13.782;2023-03-22T01:35:50;100003.28;;;11.55;100.00
33506;BME280;19843;51.040;13.782;2023-03-22T01:38:19;99999.50;;;11.57;100.00
33506;BME280;19843;51.040;13.782;2023-03-22T01:40:46;99997.59;;;11.35;100.00
33506;BME280;19843;51.040;13.782;2023-03-22T01:43:14;100001.00;;;11.26;100.00
33506;BME280;19843;51.040;13.782;2023-03-22T01:45:43;99994.03;;;11.23;100.00
33506;BME280;19843;51.040;13.782;2023-03-22T01:48:12;99997.56;;;11.24;100.00
33506;BME280;19843;51.040;13.782;2023-03-22T01:50:42;99995.94;;;11.10;100.00
33506;BME280;19843;51.040;13.782;2023-03-22T01:53:11;99998.50;;;11.12;100.00
33506;BME280;19843;51.040;13.782;2023-03-22T01:55:40;99993.09;;;11.00;100.00
33506;BME280;19843;51.040;13.782;2023-03-22T01:58:08;99978.44;;;10.93;100.00
33506;BME280;19843;51.040;13.782;2023-03-22T02:00:35;99981.91;;;10.82;100.00
33506;BME280;19843;51.040;13.782;2023-03-22T02:03:03;99984.69;;;10.70;100.00
33506;BME280;19843;51.040;13.782;2023-03-22T02:05:32;99983.56;;;10.48;100.00
33506;BME280;19843;51.040;13.782;2023-03-22T02:08:00;99988.25;;;10.57;100.00
33506;BME280;19843;51.040;13.782;2023-03-22T02:10:28;99989.91;;;10.71;100.00
33506;BME280;19843;51.040;13.782;2023-03-22T02:13:00;99981.31;;;10.42;100.00
33506;BME280;19843;51.040;13.782;2023-03-22T02:15:30;99984.69;;;10.33;100.00
33506;BME280;19843;51.040;13.782;2023-03-22T02:18:04;99977.91;;;10.40;100.00
33506;BME280;19843;51.040;13.782;2023-03-22T02:20:59;99974.09;;;10.18;100.00
33506;BME280;19843;51.040;13.782;2023-03-22T02:23:39;99986.88;;;10.02;100.00
33506;BME280;19843;51.040;13.782;2023-03-22T02:28:56;99978.78;;;10.15;100.00
33506;BME280;19843;51.040;13.782;2023-03-22T02:31:41;99993.50;;;10.09;100.00
33506;BME280;19843;51.040;13.782;2023-03-22T02:34:26;99989.56;;;10.02;100.00
33506;BME280;19843;51.040;13.782;2023-03-22T02:39:45;99992.09;;;10.03;100.00
33506;BME280;19843;51.040;13.782;2023-03-22T02:42:19;99975.50;;;10.11;100.00
33506;BME280;19843;51.040;13.782;2023-03-22T02:44:51;99979.69;;;10.02;100.00
33506;BME280;19843;51.040;13.782;2023-03-22T02:47:25;99982.91;;;9.69;100.00
33506;BME280;19843;51.040;13.782;2023-03-22T02:49:54;99984.31;;;9.75;100.00
33506;BME280;19843;51.040;13.782;2023-03-22T02:52:26;99980.66;;;9.76;100.00
33506;BME280;19843;51.040;13.782;2023-03-22T02:54:57;99985.63;;;9.56;100.00
33506;BME280;19843;51.040;13.782;2023-03-22T02:57:31;99980.69;;;9.63;100.00
33506;BME280;19843;51.040;13.782;2023-03-22T02:59:59;99973.09;;;9.57;100.00
33506;BME280;19843;51.040;13.782;2023-03-22T03:02:33;99972.31;;;9.55;100.00
33506;BME280;19843;51.040;13.782;2023-03-22T03:05:01;99976.41;;;9.48;100.00
33506;BME280;19843;51.040;13.782;2023-03-22T03:07:28;99971.81;;;9.50;100.00
33506;BME280;19843;51.040;13.782;2023-03-22T03:09:57;99979.59;;;9.40;100.00
33506;BME280;19843;51.040;13.782;2023-03-22T03:12:26;99988.81;;;9.49;99.00
33506;BME280;19843;51.040;13.782;2023-03-22T03:14:53;99985.28;;;9.48;99.43
33506;BME280;19843;51.040;13.782;2023-03-22T03:17:23;99983.34;;;9.37;98.87
33506;BME280;19843;51.040;13.782;2023-03-22T03:19:56;99977.44;;;9.32;98.54
33506;BME280;19843;51.040;13.782;2023-03-22T03:22:28;99985.75;;;9.02;99.93
33506;BME280;19843;51.040;13.782;2023-03-22T03:25:00;99978.72;;;9.14;100.00
33506;BME280;19843;51.040;13.782;2023-03-22T03:27:32;99990.47;;;9.24;99.61
33506;BME280;19843;51.040;13.782;2023-03-22T03:30:02;99985.13;;;9.24;98.37
33506;BME280;19843;51.040;13.782;2023-03-22T03:32:32;99984.91;;;9.02;98.57
33506;BME280;19843;51.040;13.782;2023-03-22T03:35:04;99987.84;;;8.84;100.00
33506;BME280;19843;51.040;13.782;2023-03-22T03:37:34;99983.44;;;8.83;100.00
33506;BME280;19843;51.040;13.782;2023-03-22T03:40:05;99979.75;;;8.98;100.00
33506;BME280;19843;51.040;13.782;2023-03-22T03:42:36;99981.19;;;8.77;100.00
33506;BME280;19843;51.040;13.782;2023-03-22T03:45:04;99976.94;;;8.87;99.94
33506;BME280;19843;51.040;13.782;2023-03-22T03:47:32;99979.41;;;8.90;98.53
33506;BME280;19843;51.040;13.782;2023-03-22T03:50:01;99972.03;;;8.94;97.44
33506;BME280;19843;51.040;13.782;2023-03-22T03:52:28;99973.09;;;8.91;98.04
33506;BME280;19843;51.040;13.782;2023-03-22T03:54:55;99973.94;;;8.92;99.52
33506;BME280;19843;51.040;13.782;2023-03-22T03:57:24;99974.47;;;8.84;100.00
33506;BME280;19843;51.040;13.782;2023-03-22T03:59:52;99975.00;;;8.89;100.00
33506;BME280;19843;51.040;13.782;2023-03-22T04:02:19;99966.44;;;8.84;100.00
33506;BME280;19843;51.040;13.782;2023-03-22T04:04:46;99975.84;;;8.90;100.00
33506;BME280;19843;51.040;13.782;2023-03-22T04:07:14;99977.19;;;8.97;100.00
33506;BME280;19843;51.040;13.782;2023-03-22T04:09:41;99975.69;;;8.93;100.00
33506;BME280;19843;51.040;13.782;2023-03-22T04:12:08;99972.78;;;8.96;100.00
33506;BME280;19843;51.040;13.782;2023-03-22T04:14:37;99986.19;;;9.09;100.00
33506;BME280;19843;51.040;13.782;2023-03-22T04:17:04;99977.59;;;9.04;100.00
33506;BME280;19843;51.040;13.782;2023-03-22T04:19:32;99973.22;;;9.03;100.00
33506;BME280;19843;51.040;13.782;2023-03-22T04:21:59;99976.31;;;8.96;100.00
33506;BME280;19843;51.040;13.782;2023-03-22T04:24:26;99970.72;;;8.87;100.00
33506;BME280;19843;51.040;13.782;2023-03-22T04:26:54;99973.03;;;8.78;100.00
33506;BME280;19843;51.040;13.782;2023-03-22T04:29:21;99968.88;;;8.74;100.00
33506;BME280;19843;51.040;13.782;2023-03-22T04:31:50;99972.03;;;8.67;100.00
33506;BME280;19843;51.040;13.782;2023-03-22T04:34:19;99969.03;;;8.59;100.00
33506;BME280;19843;51.040;13.782;2023-03-22T04:36:46;99973.88;;;8.66;100.00
33506;BME280;19843;51.040;13.782;2023-03-22T04:39:14;99970.13;;;8.69;100.00
33506;BME280;19843;51.040;13.782;2023-03-22T04:41:42;99968.00;;;8.74;100.00
33506;BME280;19843;51.040;13.782;2023-03-22T04:44:09;99964.44;;;8.61;100.00
33506;BME280;19843;51.040;13.782;2023-03-22T04:46:36;99975.31;;;8.57;100.00
33506;BME280;19843;51.040;13.782;2023-03-22T04:49:05;99978.44;;;8.64;100.00
33506;BME280;19843;51.040;13.782;2023-03-22T04:51:32;99972.16;;;8.65;100.00
33506;BME280;19843;51.040;13.782;2023-03-22T04:54:00;99971.00;;;8.28;100.00
33506;BME280;19843;51.040;13.782;2023-03-22T04:56:27;99967.53;;;8.40;100.00
33506;BME280;19843;51.040;13.782;2023-03-22T04:58:54;99964.94;;;8.53;100.00
33506;BME280;19843;51.040;13.782;2023-03-22T05:01:22;99970.94;;;8.56;100.00
33506;BME280;19843;51.040;13.782;2023-03-22T05:03:49;99969.72;;;8.48;100.00
33506;BME280;19843;51.040;13.782;2023-03-22T05:06:18;99978.63;;;8.34;100.00
33506;BME280;19843;51.040;13.782;2023-03-22T05:08:45;99976.78;;;8.49;100.00
33506;BME280;19843;51.040;13.782;2023-03-22T05:11:13;99977.34;;;8.54;100.00
33506;BME280;19843;51.040;13.782;2023-03-22T05:13:41;99974.50;;;8.28;100.00
33506;BME280;19843;51.040;13.782;2023-03-22T05:16:09;99969.72;;;8.48;100.00
33506;BME280;19843;51.040;13.782;2023-03-22T05:18:36;99973.63;;;8.56;99.81
33506;BME280;19843;51.040;13.782;2023-03-22T05:21:09;99962.78;;;8.45;100.00
33506;BME280;19843;51.040;13.782;2023-03-22T05:23:40;99974.63;;;8.41;100.00
33506;BME280;19843;51.040;13.782;2023-03-22T05:26:08;99965.00;;;8.66;99.76
33506;BME280;19843;51.040;13.782;2023-03-22T05:28:35;99964.63;;;8.57;100.00
33506;BME280;19843;51.040;13.782;2023-03-22T05:31:03;99972.31;;;8.49;100.00
33506;BME280;19843;51.040;13.782;2023-03-22T05:33:31;99969.91;;;8.72;99.20
33506;BME280;19843;51.040;13.782;2023-03-22T05:35:59;99974.94;;;8.64;99.48
33506;BME280;19843;51.040;13.782;2023-03-22T05:38:27;99970.06;;;8.83;98.67
33506;BME280;19843;51.040;13.782;2023-03-22T05:40:56;99968.16;;;8.85;98.43
33506;BME280;19843;51.040;13.782;2023-03-22T05:43:23;99976.13;;;8.99;98.36
33506;BME280;19843;51.040;13.782;2023-03-22T05:45:50;99966.53;;;9.23;95.92
33506;BME280;19843;51.040;13.782;2023-03-22T05:48:18;99973.59;;;9.36;95.78
33506;BME280;19843;51.040;13.782;2023-03-22T05:50:45;99974.88;;;9.69;94.13
33506;BME280;19843;51.040;13.782;2023-03-22T05:53:12;99967.91;;;9.92;92.43
33506;BME280;19843;51.040;13.782;2023-03-22T05:55:40;99964.38;;;10.04;92.06
33506;BME280;19843;51.040;13.782;2023-03-22T05:58:09;99969.47;;;10.20;90.11
33506;BME280;19843;51.040;13.782;2023-03-22T06:00:36;99966.16;;;10.30;90.13
33506;BME280;19843;51.040;13.782;2023-03-22T06:03:04;99974.03;;;10.44;89.92
33506;BME280;19843;51.040;13.782;2023-03-22T06:05:31;99964.56;;;10.51;88.95
33506;BME280;19843;51.040;13.782;2023-03-22T06:08:01;99973.06;;;10.45;88.57
33506;BME280;19843;51.040;13.782;2023-03-22T06:10:29;99974.72;;;10.35;88.30
33506;BME280;19843;51.040;13.782;2023-03-22T06:12:57;99969.84;;;10.40;88.03
33506;BME280;19843;51.040;13.782;2023-03-22T06:15:26;99982.44;;;10.27;90.31
33506;BME280;19843;51.040;13.782;2023-03-22T06:17:53;99959.88;;;10.42;91.02
33506;BME280;19843;51.040;13.782;2023-03-22T06:20:20;99957.81;;;10.58;89.94
33506;BME280;19843;51.040;13.782;2023-03-22T06:22:47;99961.00;;;10.63;89.40
33506;BME280;19843;51.040;13.782;2023-03-22T06:25:15;99958.38;;;10.75;90.58
33506;BME280;19843;51.040;13.782;2023-03-22T06:27:42;99953.16;;;10.84;88.01
33506;BME280;19843;51.040;13.782;2023-03-22T06:30:10;99962.84;;;10.98;86.95
33506;BME280;19843;51.040;13.782;2023-03-22T06:32:38;99949.56;;;11.08;86.74
33506;BME280;19843;51.040;13.782;2023-03-22T06:35:06;99955.56;;;11.12;86.49
33506;BME280;19843;51.040;13.782;2023-03-22T06:37:33;99957.28;;;11.13;87.14
33506;BME280;19843;51.040;13.782;2023-03-22T06:40:01;99958.03;;;11.26;87.10
33506;BME280;19843;51.040;13.782;2023-03-22T06:42:28;99961.72;;;11.25;86.69
33506;BME280;19843;51.040;13.782;2023-03-22T06:44:56;99955.19;;;11.40;85.72
33506;BME280;19843;51.040;13.782;2023-03-22T06:47:24;99955.44;;;11.60;83.62
33506;BME280;19843;51.040;13.782;2023-03-22T06:49:52;99960.03;;;11.46;86.32
33506;BME280;19843;51.040;13.782;2023-03-22T06:52:20;99960.81;;;11.60;86.01
33506;BME280;19843;51.040;13.782;2023-03-22T06:54:47;99946.78;;;11.67;86.57
33506;BME280;19843;51.040;13.782;2023-03-22T06:57:14;99963.41;;;11.84;86.49
33506;BME280;19843;51.040;13.782;2023-03-22T06:59:42;99960.22;;;11.79;84.88
33506;BME280;19843;51.040;13.782;2023-03-22T07:02:10;99955.75;;;11.90;84.79
33506;BME280;19843;51.040;13.782;2023-03-22T07:04:37;99952.31;;;12.00;83.77
33506;BME280;19843;51.040;13.782;2023-03-22T07:07:06;99964.03;;;11.87;85.42
33506;BME280;19843;51.040;13.782;2023-03-22T07:09:33;99960.25;;;11.90;85.97
33506;BME280;19843;51.040;13.782;2023-03-22T07:12:01;99960.13;;;12.03;84.53
33506;BME280;19843;51.040;13.782;2023-03-22T07:14:30;99959.84;;;12.17;84.09
33506;BME280;19843;51.040;13.782;2023-03-22T07:16:57;99954.00;;;12.23;82.68
33506;BME280;19843;51.040;13.782;2023-03-22T07:19:24;99948.38;;;12.38;82.31
33506;BME280;19843;51.040;13.782;2023-03-22T07:21:52;99957.50;;;12.35;81.90
33506;BME280;19843;51.040;13.782;2023-03-22T07:24:21;99952.47;;;12.42;80.48
33506;BME280;19843;51.040;13.782;2023-03-22T07:26:48;99947.06;;;12.53;80.30
33506;BME280;19843;51.040;13.782;2023-03-22T07:29:16;99948.56;;;12.46;80.10
33506;BME280;19843;51.040;13.782;2023-03-22T07:31:43;99948.91;;;12.52;80.73
33506;BME280;19843;51.040;13.782;2023-03-22T07:34:11;99947.03;;;12.64;80.00
33506;BME280;19843;51.040;13.782;2023-03-22T07:36:38;99945.19;;;12.65;79.19
33506;BME280;19843;51.040;13.782;2023-03-22T07:39:05;99950.25;;;12.90;79.08
33506;BME280;19843;51.040;13.782;2023-03-22T07:41:34;99941.06;;;12.93;78.45
33506;BME280;19843;51.040;13.782;2023-03-22T07:44:01;99946.75;;;13.11;76.86
33506;BME280;19843;51.040;13.782;2023-03-22T07:46:42;99939.00;;;13.18;76.25
33506;BME280;19843;51.040;13.782;2023-03-22T07:49:10;99936.84;;;13.32;75.70
33506;BME280;19843;51.040;13.782;2023-03-22T07:51:37;99940.13;;;13.57;74.53
33506;BME280;19843;51.040;13.782;2023-03-22T07:54:05;99942.84;;;13.88;74.35
33506;BME280;19843;51.040;13.782;2023-03-22T07:56:34;99944.34;;;14.21;72.41
33506;BME280;19843;51.040;13.782;2023-03-22T07:59:01;99936.16;;;14.32;71.94
33506;BME280;19843;51.040;13.782;2023-03-22T08:01:29;99943.91;;;14.56;71.16
33506;BME280;19843;51.040;13.782;2023-03-22T08:03:56;99936.28;;;14.81;67.73
33506;BME280;19843;51.040;13.782;2023-03-22T08:06:23;99938.53;;;14.95;68.38
33506;BME280;19843;51.040;13.782;2023-03-22T08:08:51;99936.84;;;14.94;67.69
33506;BME280;19843;51.040;13.782;2023-03-22T08:11:18;99942.06;;;15.25;67.45
33506;BME280;19843;51.040;13.782;2023-03-22T08:13:47;99941.59;;;15.39;68.56
33506;BME280;19843;51.040;13.782;2023-03-22T08:16:14;99941.00;;;15.55;66.93
33506;BME280;19843;51.040;13.782;2023-03-22T08:18:42;99944.13;;;15.60;67.07
33506;BME280;19843;51.040;13.782;2023-03-22T08:21:10;99944.47;;;15.18;68.83
33506;BME280;19843;51.040;13.782;2023-03-22T08:23:37;99941.94;;;15.27;68.93
33506;BME280;19843;51.040;13.782;2023-03-22T08:26:07;99941.63;;;15.30;65.81
33506;BME280;19843;51.040;13.782;2023-03-22T08:28:35;99937.53;;;15.16;63.14
33506;BME280;19843;51.040;13.782;2023-03-22T08:31:09;99929.94;;;15.39;64.08
33506;BME280;19843;51.040;13.782;2023-03-22T08:33:40;99935.44;;;15.76;66.21
33506;BME280;19843;51.040;13.782;2023-03-22T08:36:08;99932.50;;;15.97;58.59
33506;BME280;19843;51.040;13.782;2023-03-22T08:38:36;99930.91;;;16.04;59.53
33506;BME280;19843;51.040;13.782;2023-03-22T08:41:03;99935.00;;;16.36;60.22
33506;BME280;19843;51.040;13.782;2023-03-22T08:43:31;99933.00;;;16.38;60.37
33506;BME280;19843;51.040;13.782;2023-03-22T08:45:58;99928.75;;;16.36;59.23
33506;BME280;19843;51.040;13.782;2023-03-22T08:48:27;99927.75;;;16.09;58.23
33506;BME280;19843;51.040;13.782;2023-03-22T08:50:55;99922.63;;;16.34;58.83
33506;BME280;19843;51.040;13.782;2023-03-22T08:53:23;99923.66;;;16.50;56.78
33506;BME280;19843;51.040;13.782;2023-03-22T08:55:50;99932.47;;;16.53;56.84
33506;BME280;19843;51.040;13.782;2023-03-22T08:58:17;99914.31;;;16.63;57.79
33506;BME280;19843;51.040;13.782;2023-03-22T09:00:45;99919.03;;;16.79;56.48
33506;BME280;19843;51.040;13.782;2023-03-22T09:03:15;99925.44;;;16.60;56.55
33506;BME280;19843;51.040;13.782;2023-03-22T09:05:43;99922.03;;;16.76;55.12
33506;BME280;19843;51.040;13.782;2023-03-22T09:08:11;99925.28;;;16.43;55.83
33506;BME280;19843;51.040;13.782;2023-03-22T09:10:44;99914.06;;;16.38;57.25
33506;BME280;19843;51.040;13.782;2023-03-22T09:13:16;99913.47;;;16.44;55.43
33506;BME280;19843;51.040;13.782;2023-03-22T09:15:43;99904.72;;;16.50;55.29
33506;BME280;19843;51.040;13.782;2023-03-22T09:18:11;99905.78;;;16.58;56.01
33506;BME280;19843;51.040;13.782;2023-03-22T09:20:39;99907.00;;;16.91;57.10
33506;BME280;19843;51.040;13.782;2023-03-22T09:23:08;99904.00;;;16.94;55.28
33506;BME280;19843;51.040;13.782;2023-03-22T09:25:35;99901.75;;;17.33;54.20
33506;BME280;19843;51.040;13.782;2023-03-22T09:28:03;99891.38;;;17.55;53.93
33506;BME280;19843;51.040;13.782;2023-03-22T09:30:31;99890.91;;;17.86;53.63
33506;BME280;19843;51.040;13.782;2023-03-22T09:32:58;99887.25;;;18.11;52.17
33506;BME280;19843;51.040;13.782;2023-03-22T09:35:25;99883.41;;;18.22;52.64
33506;BME280;19843;51.040;13.782;2023-03-22T09:37:52;99880.88;;;18.37;50.86
33506;BME280;19843;51.040;13.782;2023-03-22T09:40:22;99888.72;;;18.40;51.01
33506;BME280;19843;51.040;13.782;2023-03-22T09:42:54;99868.38;;;18.61;51.12
33506;BME280;19843;51.040;13.782;2023-03-22T09:45:24;99867.69;;;18.42;51.07
33506;BME280;19843;51.040;13.782;2023-03-22T09:47:57;99867.38;;;18.53;50.10
33506;BME280;19843;51.040;13.782;2023-03-22T09:50:25;99866.19;;;18.72;50.23
33506;BME280;19843;51.040;13.782;2023-03-22T09:52:53;99861.94;;;18.53;51.69
33506;BME280;19843;51.040;13.782;2023-03-22T09:55:24;99859.59;;;18.91;49.88
33506;BME280;19843;51.040;13.782;2023-03-22T09:57:57;99856.19;;;18.89;48.63
33506;BME280;19843;51.040;13.782;2023-03-22T10:00:31;99862.56;;;18.31;48.60
33506;BME280;19843;51.040;13.782;2023-03-22T10:03:04;99854.78;;;18.36;48.05
33506;BME280;19843;51.040;13.782;2023-03-22T10:05:36;99852.16;;;18.85;50.97
33506;BME280;19843;51.040;13.782;2023-03-22T10:10:53;99837.28;;;18.22;46.92
33506;BME280;19843;51.040;13.782;2023-03-22T10:13:22;99836.13;;;18.41;47.69
33506;BME280;19843;51.040;13.782;2023-03-22T10:15:50;99831.41;;;18.68;46.83
33506;BME280;19843;51.040;13.782;2023-03-22T10:18:19;99834.50;;;18.81;47.62
33506;BME280;19843;51.040;13.782;2023-03-22T10:20:47;99826.28;;;18.48;46.78
33506;BME280;19843;51.040;13.782;2023-03-22T10:23:17;99832.84;;;18.21;47.86
33506;BME280;19843;51.040;13.782;2023-03-22T10:25:46;99824.88;;;18.03;47.70
33506;BME280;19843;51.040;13.782;2023-03-22T10:28:17;99828.19;;;17.89;48.54
33506;BME280;19843;51.040;13.782;2023-03-22T10:30:46;99825.31;;;17.56;49.53
33506;BME280;19843;51.040;13.782;2023-03-22T10:33:20;99822.25;;;17.51;48.99
33506;BME280;19843;51.040;13.782;2023-03-22T10:35:48;99820.25;;;17.27;47.82
33506;BME280;19843;51.040;13.782;2023-03-22T10:38:18;99820.97;;;17.37;48.97
33506;BME280;19843;51.040;13.782;2023-03-22T10:40:47;99828.25;;;17.37;49.90
33506;BME280;19843;51.040;13.782;2023-03-22T10:43:19;99809.53;;;17.51;48.23
33506;BME280;19843;51.040;13.782;2023-03-22T10:45:47;99816.03;;;17.32;48.96
33506;BME280;19843;51.040;13.782;2023-03-22T10:48:15;99802.28;;;17.26;49.60
33506;BME280;19843;51.040;13.782;2023-03-22T10:50:46;99797.66;;;17.44;48.96
33506;BME280;19843;51.040;13.782;2023-03-22T10:53:15;99796.06;;;17.68;48.82
33506;BME280;19843;51.040;13.782;2023-03-22T10:55:47;99792.25;;;17.87;48.41
33506;BME280;19843;51.040;13.782;2023-03-22T10:58:15;99804.13;;;17.86;48.90
33506;BME280;19843;51.040;13.782;2023-03-22T11:00:44;99796.00;;;17.60;48.32
33506;BME280;19843;51.040;13.782;2023-03-22T11:03:21;99804.31;;;17.92;50.12
33506;BME280;19843;51.040;13.782;2023-03-22T11:05:56;99802.09;;;17.88;48.21
33506;BME280;19843;51.040;13.782;2023-03-22T11:08:23;99790.91;;;17.91;47.98
33506;BME280;19843;51.040;13.782;2023-03-22T11:10:51;99797.91;;;18.02;48.57
33506;BME280;19843;51.040;13.782;2023-03-22T11:13:20;99793.03;;;18.22;47.34
33506;BME280;19843;51.040;13.782;2023-03-22T11:15:52;99790.69;;;18.51;47.12
33506;BME280;19843;51.040;13.782;2023-03-22T11:18:20;99788.47;;;18.30;48.25
33506;BME280;19843;51.040;13.782;2023-03-22T11:20:51;99775.72;;;18.31;48.11
33506;BME280;19843;51.040;13.782;2023-03-22T11:23:20;99768.09;;;18.26;48.04
33506;BME280;19843;51.040;13.782;2023-03-22T11:25:48;99762.81;;;18.16;47.21
33506;BME280;19843;51.040;13.782;2023-03-22T11:28:18;99762.34;;;18.62;47.56
33506;BME280;19843;51.040;13.782;2023-03-22T11:30:58;99755.06;;;18.87;46.44
33506;BME280;19843;51.040;13.782;2023-03-22T11:33:25;99742.41;;;19.19;46.81
33506;BME280;19843;51.040;13.782;2023-03-22T11:35:53;99740.31;;;19.37;46.68
33506;BME280;19843;51.040;13.782;2023-03-22T11:38:21;99736.13;;;19.58;47.00
33506;BME280;19843;51.040;13.782;2023-03-22T11:40:52;99731.19;;;19.22;46.15
33506;BME280;19843;51.040;13.782;2023-03-22T11:43:21;99737.28;;;19.24;44.90
33506;BME280;19843;51.040;13.782;2023-03-22T11:45:50;99726.78;;;19.13;47.52
33506;BME280;19843;51.040;13.782;2023-03-22T11:48:21;99718.31;;;19.08;44.69
33506;BME280;19843;51.040;13.782;2023-03-22T11:50:51;99713.63;;;18.77;45.39
33506;BME280;19843;51.040;13.782;2023-03-22T11:53:20;99711.25;;;18.90;45.63
33506;BME280;19843;51.040;13.782;2023-03-22T11:55:48;99699.53;;;18.90;45.48
33506;BME280;19843;51.040;13.782;2023-03-22T11:58:23;99703.31;;;19.20;45.71
33506;BME280;19843;51.040;13.782;2023-03-22T12:00:51;99696.75;;;19.14;44.91
33506;BME280;19843;51.040;13.782;2023-03-22T12:03:22;99700.53;;;19.36;46.42
33506;BME280;19843;51.040;13.782;2023-03-22T12:05:51;99689.94;;;19.50;44.93
33506;BME280;19843;51.040;13.782;2023-03-22T12:08:20;99691.72;;;19.66;45.30
33506;BME280;19843;51.040;13.782;2023-03-22T12:10:51;99683.41;;;19.67;44.77
33506;BME280;19843;51.040;13.782;2023-03-22T12:13:20;99684.53;;;19.41;44.35
33506;BME280;19843;51.040;13.782;2023-03-22T12:15:49;99680.25;;;19.55;44.68
33506;BME280;19843;51.040;13.782;2023-03-22T12:18:21;99680.84;;;19.34;44.37
33506;BME280;19843;51.040;13.782;2023-03-22T12:20:54;99676.66;;;19.55;45.19
33506;BME280;19843;51.040;13.782;2023-03-22T12:23:23;99663.31;;;19.76;45.36
33506;BME280;19843;51.040;13.782;2023-03-22T12:25:52;99656.28;;;20.05;44.21
33506;BME280;19843;51.040;13.782;2023-03-22T12:28:25;99657.66;;;20.24;45.24
33506;BME280;19843;51.040;13.782;2023-03-22T12:30:54;99667.91;;;20.37;44.74
33506;BME280;19843;51.040;13.782;2023-03-22T12:33:24;99660.94;;;20.19;43.49
33506;BME280;19843;51.040;13.782;2023-03-22T12:35:56;99665.09;;;19.53;44.33
33506;BME280;19843;51.040;13.782;2023-03-22T12:38:25;99656.22;;;19.36;44.32
33506;BME280;19843;51.040;13.782;2023-03-22T12:40:56;99661.75;;;19.51;45.01
33506;BME280;19843;51.040;13.782;2023-03-22T12:43:29;99661.72;;;19.82;45.42
33506;BME280;19843;51.040;13.782;2023-03-22T12:45:59;99650.97;;;19.89;43.69
33506;BME280;19843;51.040;13.782;2023-03-22T12:48:29;99654.59;;;20.04;43.66
33506;BME280;19843;51.040;13.782;2023-03-22T12:51:01;99654.84;;;19.94;43.51
33506;BME280;19843;51.040;13.782;2023-03-22T12:53:31;99647.41;;;19.57;43.57
33506;BME280;19843;51.040;13.782;2023-03-22T12:55:59;99643.44;;;19.68;44.32
33506;BME280;19843;51.040;13.782;2023-03-22T12:58:27;99634.31;;;19.92;44.59
33506;BME280;19843;51.040;13.782;2023-03-22T13:00:55;99638.47;;;19.79;42.51
33506;BME280;19843;51.040;13.782;2023-03-22T13:03:25;99649.41;;;19.94;42.80
33506;BME280;19843;51.040;13.782;2023-03-22T13:05:58;99638.13;;;19.83;42.76